createdAt,value
2023-01-10T00:00:49.672Z,1.80
2023-01-10T00:03:16.783Z,1.97
2023-01-10T00:05:43.943Z,1.60
2023-01-10T00:08:14.768Z,1.70
2023-01-10T00:10:42.025Z,1.90
2023-01-10T00:13:23.744Z,1.63
2023-01-10T00:15:52.106Z,1.40
2023-01-10T00:18:19.727Z,1.70
2023-01-10T00:20:47.770Z,1.63
2023-01-10T00:23:15.177Z,1.70
2023-01-10T00:25:42.485Z,1.30
2023-01-10T00:28:21.798Z,1.63
2023-01-10T00:31:01.087Z,1.50
2023-01-10T00:33:30.028Z,1.30
2023-01-10T00:35:57.124Z,1.47
2023-01-10T00:38:24.319Z,1.97
2023-01-10T00:40:51.484Z,1.63
2023-01-10T00:43:36.975Z,1.50
2023-01-10T00:46:04.155Z,1.47
2023-01-10T00:48:31.308Z,1.50
2023-01-10T00:50:58.431Z,1.10
2023-01-10T00:53:25.723Z,1.93
2023-01-10T00:55:54.292Z,1.50
2023-01-10T00:58:21.580Z,1.40
2023-01-10T01:00:49.941Z,2.00
2023-01-10T01:03:23.277Z,1.80
2023-01-10T01:05:50.473Z,1.30
2023-01-10T01:08:18.218Z,1.40
2023-01-10T01:10:45.377Z,1.50
2023-01-10T01:13:16.802Z,1.40
2023-01-10T01:15:44.063Z,1.33
2023-01-10T01:18:13.403Z,1.60
2023-01-10T01:20:41.334Z,1.27
2023-01-10T01:23:08.628Z,1.20
2023-01-10T01:25:36.068Z,1.17
2023-01-10T01:28:03.270Z,1.17
2023-01-10T01:30:30.419Z,1.30
2023-01-10T01:32:57.509Z,1.20
2023-01-10T01:35:25.165Z,1.33
2023-01-10T01:37:52.294Z,1.60
2023-01-10T01:40:20.676Z,1.37
2023-01-10T01:42:48.085Z,1.20
2023-01-10T01:45:15.146Z,1.07
2023-01-10T01:47:55.068Z,1.33
2023-01-10T01:50:25.608Z,1.50
2023-01-10T01:52:54.218Z,1.47
2023-01-10T01:55:21.697Z,1.57
2023-01-10T01:57:51.078Z,1.13
2023-01-10T02:00:18.287Z,1.50
2023-01-10T02:03:01.762Z,1.67
2023-01-10T02:05:31.257Z,1.47
2023-01-10T02:07:59.222Z,1.23
2023-01-10T02:10:29.146Z,1.53
2023-01-10T02:12:56.798Z,1.23
2023-01-10T02:15:23.888Z,1.53
2023-01-10T02:17:52.078Z,1.10
2023-01-10T02:20:20.599Z,1.10
2023-01-10T02:23:06.555Z,1.07
2023-01-10T02:25:52.000Z,0.90
2023-01-10T02:28:37.500Z,1.50
2023-01-10T02:31:04.615Z,1.20
2023-01-10T02:33:37.503Z,1.20
2023-01-10T02:36:10.446Z,1.07
2023-01-10T02:38:37.531Z,0.93
2023-01-10T02:41:10.633Z,1.13
2023-01-10T02:43:46.178Z,1.07
2023-01-10T02:46:17.662Z,1.07
2023-01-10T02:48:44.834Z,1.17
2023-01-10T02:51:18.839Z,1.33
2023-01-10T02:53:48.651Z,1.10
2023-01-10T02:56:18.868Z,1.10
2023-01-10T02:58:51.765Z,1.10
2023-01-10T03:01:21.688Z,1.00
2023-01-10T03:04:04.955Z,1.20
2023-01-10T03:06:56.094Z,0.80
2023-01-10T03:09:29.005Z,0.97
2023-01-10T03:12:02.738Z,0.97
2023-01-10T03:14:31.145Z,1.13
2023-01-10T03:17:04.843Z,1.00
2023-01-10T03:19:33.782Z,0.90
2023-01-10T03:22:02.095Z,0.97
2023-01-10T03:24:34.823Z,1.17
2023-01-10T03:27:08.171Z,0.93
2023-01-10T03:29:44.449Z,0.70
2023-01-10T03:32:12.883Z,1.10
2023-01-10T03:34:40.987Z,0.93
2023-01-10T03:37:08.082Z,0.83
2023-01-10T03:39:35.179Z,0.80
2023-01-10T03:42:14.031Z,0.90
2023-01-10T03:45:10.235Z,0.90
2023-01-10T03:47:45.510Z,1.03
2023-01-10T03:50:20.862Z,0.97
2023-01-10T03:52:47.990Z,0.80
2023-01-10T03:55:18.933Z,0.70
2023-01-10T03:57:46.127Z,1.17
2023-01-10T04:00:14.199Z,0.93
2023-01-10T04:02:41.529Z,1.17
2023-01-10T04:05:08.918Z,0.93
2023-01-10T04:07:36.159Z,0.83
2023-01-10T04:10:04.209Z,0.90
2023-01-10T04:12:31.675Z,1.03
2023-01-10T04:14:58.814Z,0.73
2023-01-10T04:17:25.930Z,1.30
2023-01-10T04:19:53.021Z,0.80
2023-01-10T04:22:20.109Z,0.80
2023-01-10T04:24:48.651Z,0.70
2023-01-10T04:27:15.808Z,1.00
2023-01-10T04:29:42.935Z,0.83
2023-01-10T04:32:10.073Z,0.90
2023-01-10T04:34:37.167Z,0.70
2023-01-10T04:37:04.268Z,0.73
2023-01-10T04:39:31.391Z,0.80
2023-01-10T04:41:58.519Z,0.80
2023-01-10T04:44:25.611Z,0.73
2023-01-10T04:46:52.719Z,0.70
2023-01-10T04:49:19.820Z,0.90
2023-01-10T04:51:46.930Z,0.80
2023-01-10T04:54:14.043Z,0.77
2023-01-10T04:56:41.130Z,0.90
2023-01-10T04:59:09.967Z,0.80
2023-01-10T05:01:39.167Z,0.97
2023-01-10T05:04:06.925Z,0.70
2023-01-10T05:06:34.211Z,0.70
2023-01-10T05:09:01.457Z,0.80
2023-01-10T05:11:28.557Z,0.63
2023-01-10T05:13:55.695Z,0.70
2023-01-10T05:16:22.906Z,0.90
2023-01-10T05:18:50.750Z,1.07
2023-01-10T05:21:18.310Z,0.70
2023-01-10T05:23:45.447Z,0.83
2023-01-10T05:26:13.747Z,0.90
2023-01-10T05:28:41.454Z,0.90
2023-01-10T05:31:09.517Z,0.97
2023-01-10T05:33:36.863Z,0.90
2023-01-10T05:36:04.607Z,0.83
2023-01-10T05:38:32.061Z,0.87
2023-01-10T05:40:59.846Z,0.67
2023-01-10T05:43:27.681Z,0.80
2023-01-10T05:45:54.840Z,0.87
2023-01-10T05:48:22.062Z,0.87
2023-01-10T05:50:50.258Z,1.00
2023-01-10T05:53:17.697Z,0.67
2023-01-10T05:55:44.852Z,0.80
2023-01-10T05:58:11.985Z,0.70
2023-01-10T06:00:40.298Z,0.97
2023-01-10T06:03:07.473Z,1.00
2023-01-10T06:05:34.609Z,1.10
2023-01-10T06:08:01.713Z,0.83
2023-01-10T06:10:28.780Z,1.00
2023-01-10T06:12:55.973Z,1.00
2023-01-10T06:15:23.150Z,0.90
2023-01-10T06:17:50.300Z,1.00
2023-01-10T06:20:17.651Z,1.40
2023-01-10T06:22:44.735Z,1.07
2023-01-10T06:25:12.184Z,1.03
2023-01-10T06:27:43.515Z,1.33
2023-01-10T06:30:11.871Z,0.80
2023-01-10T06:32:39.446Z,0.90
2023-01-10T06:35:06.846Z,1.10
2023-01-10T06:37:33.958Z,1.37
2023-01-10T06:40:01.049Z,1.13
2023-01-10T06:42:28.136Z,1.40
2023-01-10T06:44:55.204Z,1.43
2023-01-10T06:47:22.349Z,1.30
2023-01-10T06:49:49.447Z,1.20
2023-01-10T06:52:16.551Z,1.17
2023-01-10T06:54:43.895Z,1.20
2023-01-10T06:57:11.002Z,1.10
2023-01-10T06:59:38.295Z,1.20
2023-01-10T07:02:05.501Z,1.70
2023-01-10T07:04:32.730Z,1.43
2023-01-10T07:06:59.852Z,1.33
2023-01-10T07:09:26.952Z,1.50
2023-01-10T07:11:54.061Z,1.20
2023-01-10T07:14:21.161Z,1.50
2023-01-10T07:16:48.280Z,1.30
2023-01-10T07:19:17.185Z,1.77
2023-01-10T07:21:44.830Z,1.47
2023-01-10T07:24:11.944Z,1.40
2023-01-10T07:26:39.070Z,1.40
2023-01-10T07:29:06.324Z,1.40
2023-01-10T07:31:33.783Z,1.70
2023-01-10T07:34:01.005Z,1.53
2023-01-10T07:36:28.109Z,1.60
2023-01-10T07:38:55.326Z,1.60
2023-01-10T07:41:22.473Z,1.93
2023-01-10T07:43:49.558Z,2.17
2023-01-10T07:46:17.086Z,2.00
2023-01-10T07:48:46.208Z,2.10
2023-01-10T07:51:13.323Z,2.17
2023-01-10T07:53:40.501Z,2.03
2023-01-10T07:56:07.836Z,2.17
2023-01-10T07:58:34.945Z,2.37
2023-01-10T08:01:03.992Z,2.20
2023-01-10T08:03:33.043Z,2.50
2023-01-10T08:06:04.489Z,2.00
2023-01-10T08:08:31.666Z,2.60
2023-01-10T08:11:02.714Z,2.03
2023-01-10T08:13:30.318Z,2.23
2023-01-10T08:15:57.793Z,2.70
2023-01-10T08:18:27.064Z,3.07
2023-01-10T08:20:54.534Z,4.00
2023-01-10T08:23:22.160Z,5.53
2023-01-10T08:25:49.934Z,5.80
2023-01-10T08:28:17.112Z,4.90
2023-01-10T08:30:44.225Z,5.10
2023-01-10T08:33:12.344Z,4.90
2023-01-10T08:35:40.296Z,5.27
2023-01-10T08:38:07.654Z,5.30
2023-01-10T08:40:34.944Z,5.37
2023-01-10T08:43:03.227Z,5.20
2023-01-10T08:45:30.692Z,4.70
2023-01-10T08:47:57.855Z,5.40
2023-01-10T08:50:25.532Z,5.03
2023-01-10T08:52:52.698Z,4.50
2023-01-10T08:55:20.374Z,4.13
2023-01-10T08:57:47.532Z,4.90
2023-01-10T09:00:15.005Z,4.47
2023-01-10T09:02:42.240Z,4.23
2023-01-10T09:05:18.598Z,4.30
2023-01-10T09:07:53.323Z,4.10
2023-01-10T09:10:21.513Z,4.00
2023-01-10T09:12:54.866Z,3.87
2023-01-10T09:15:22.783Z,4.13
2023-01-10T09:17:50.089Z,3.90
2023-01-10T09:20:17.322Z,4.20
2023-01-10T09:22:44.484Z,4.87
2023-01-10T09:25:11.628Z,4.87
2023-01-10T09:27:38.793Z,4.50
2023-01-10T09:30:06.065Z,3.90
2023-01-10T09:32:34.108Z,4.23
2023-01-10T09:35:01.255Z,4.27
2023-01-10T09:37:28.358Z,4.23
2023-01-10T09:39:55.488Z,4.17
2023-01-10T09:42:28.257Z,4.60
2023-01-10T09:45:16.340Z,4.07
2023-01-10T09:47:54.306Z,3.57
2023-01-10T09:50:30.520Z,3.63
2023-01-10T09:53:01.867Z,3.93
2023-01-10T09:55:33.093Z,4.03
2023-01-10T09:58:01.625Z,3.80
2023-01-10T10:00:34.547Z,4.10
2023-01-10T10:03:02.979Z,4.00
2023-01-10T10:05:30.091Z,3.97
2023-01-10T10:08:02.466Z,5.10
2023-01-10T10:10:32.557Z,5.37
2023-01-10T10:13:11.668Z,4.57
2023-01-10T10:15:46.691Z,4.40
2023-01-10T10:18:26.102Z,4.00
2023-01-10T10:21:11.895Z,4.50
2023-01-10T10:23:53.657Z,4.40
2023-01-10T10:26:27.103Z,3.97
2023-01-10T10:29:03.857Z,4.20
2023-01-10T10:31:39.877Z,3.30
2023-01-10T10:34:25.258Z,3.70
2023-01-10T10:37:02.365Z,3.63
2023-01-10T10:39:35.338Z,3.27
2023-01-10T10:42:03.690Z,3.27
2023-01-10T10:44:57.404Z,2.50
2023-01-10T10:47:24.991Z,2.47
2023-01-10T10:50:01.511Z,2.00
2023-01-10T10:52:34.701Z,2.30
2023-01-10T10:55:02.361Z,1.63
2023-01-10T10:57:30.607Z,2.10
2023-01-10T10:59:58.554Z,1.90
2023-01-10T11:02:30.719Z,2.20
2023-01-10T11:05:03.571Z,2.40
2023-01-10T11:07:34.976Z,1.70
2023-01-10T11:10:11.018Z,1.87
2023-01-10T11:12:41.872Z,1.70
2023-01-10T11:15:09.186Z,2.10
2023-01-10T11:17:40.913Z,2.27
2023-01-10T11:20:15.900Z,2.10
2023-01-10T11:22:53.219Z,2.23
2023-01-10T11:25:21.817Z,2.20
2023-01-10T11:28:01.746Z,1.70
2023-01-10T11:30:31.054Z,3.10
2023-01-10T11:33:06.534Z,6.00
2023-01-10T11:35:37.013Z,7.17
2023-01-10T11:38:05.750Z,7.40
2023-01-10T11:40:34.117Z,6.83
2023-01-10T11:43:03.913Z,6.20
2023-01-10T11:45:32.783Z,6.60
2023-01-10T11:48:05.942Z,5.80
2023-01-10T11:50:34.698Z,5.50
2023-01-10T11:53:02.044Z,4.63
2023-01-10T11:55:30.542Z,4.30
2023-01-10T11:57:57.671Z,3.87
2023-01-10T12:00:31.931Z,2.97
2023-01-10T12:02:59.154Z,3.13
2023-01-10T12:05:26.358Z,2.87
2023-01-10T12:08:06.089Z,2.77
2023-01-10T12:10:33.598Z,2.43
2023-01-10T12:13:08.330Z,2.40
2023-01-10T12:15:36.709Z,2.30
2023-01-10T12:18:05.634Z,2.50
2023-01-10T12:20:35.155Z,2.40
2023-01-10T12:23:05.545Z,2.17
2023-01-10T12:25:40.777Z,2.20
2023-01-10T12:28:19.787Z,1.73
2023-01-10T12:30:50.671Z,2.10
2023-01-10T12:33:20.575Z,1.90
2023-01-10T12:36:16.816Z,2.27
2023-01-10T12:39:04.175Z,1.83
2023-01-10T12:41:53.253Z,1.90
2023-01-10T12:44:25.224Z,1.43
2023-01-10T12:47:13.309Z,2.10
2023-01-10T12:49:46.880Z,2.30
2023-01-10T12:52:34.673Z,1.70
2023-01-10T12:55:03.330Z,1.63
2023-01-10T12:57:36.784Z,2.07
2023-01-10T13:00:06.119Z,2.00
2023-01-10T13:02:44.186Z,2.63
2023-01-10T13:05:20.115Z,2.50
2023-01-10T13:07:48.445Z,1.97
2023-01-10T13:10:18.196Z,1.93
2023-01-10T13:12:48.132Z,2.23
2023-01-10T13:15:21.844Z,2.00
2023-01-10T13:17:50.031Z,2.40
2023-01-10T13:20:17.224Z,2.00
2023-01-10T13:22:45.504Z,2.03
2023-01-10T13:25:39.634Z,2.30
2023-01-10T13:28:24.436Z,1.90
2023-01-10T13:30:56.828Z,2.17
2023-01-10T13:33:25.598Z,2.27
2023-01-10T13:35:54.335Z,2.00
2023-01-10T13:38:21.487Z,2.07
2023-01-10T13:41:36.291Z,2.17
2023-01-10T13:44:07.841Z,2.33
2023-01-10T13:46:36.670Z,2.20
2023-01-10T13:49:03.915Z,2.00
2023-01-10T13:51:32.141Z,2.20
2023-01-10T13:54:00.325Z,2.00
2023-01-10T13:56:34.630Z,1.73
2023-01-10T13:59:20.678Z,1.73
2023-01-10T14:02:12.524Z,2.17
2023-01-10T14:04:52.040Z,2.00
2023-01-10T14:07:19.259Z,2.10
2023-01-10T14:09:47.824Z,1.77
2023-01-10T14:12:19.878Z,2.27
2023-01-10T14:14:52.053Z,1.57
2023-01-10T14:17:30.050Z,1.97
2023-01-10T14:20:12.517Z,2.10
2023-01-10T14:22:41.417Z,1.70
2023-01-10T14:25:21.694Z,1.60
2023-01-10T14:27:53.110Z,1.50
2023-01-10T14:30:22.467Z,2.07
2023-01-10T14:32:51.324Z,1.47
2023-01-10T14:35:20.140Z,1.40
2023-01-10T14:37:57.972Z,1.37
2023-01-10T14:40:34.884Z,1.97
2023-01-10T14:43:04.441Z,1.93
2023-01-10T14:45:37.260Z,1.60
2023-01-10T14:48:23.615Z,1.83
2023-01-10T14:50:50.847Z,1.60
2023-01-10T14:53:31.472Z,1.80
2023-01-10T14:55:59.125Z,1.90
2023-01-10T14:58:26.259Z,1.67
2023-01-10T15:00:55.624Z,1.33
2023-01-10T15:03:24.628Z,1.50
2023-01-10T15:05:53.567Z,1.93
2023-01-10T15:08:31.643Z,1.77
2023-01-10T15:11:02.585Z,1.50
2023-01-10T15:13:30.778Z,1.97
2023-01-10T15:15:58.415Z,2.07
2023-01-10T15:18:36.199Z,1.40
2023-01-10T15:21:03.911Z,1.67
2023-01-10T15:23:34.671Z,1.87
2023-01-10T15:26:03.502Z,1.20
2023-01-10T15:28:31.298Z,1.60
2023-01-10T15:30:59.750Z,1.53
2023-01-10T15:33:29.311Z,1.50
2023-01-10T15:35:58.012Z,1.30
2023-01-10T15:38:30.226Z,1.90
2023-01-10T15:40:59.177Z,1.30
2023-01-10T15:43:30.406Z,1.53
2023-01-10T15:45:58.571Z,1.47
2023-01-10T15:48:28.751Z,1.60
2023-01-10T15:50:59.657Z,1.80
2023-01-10T15:53:45.642Z,1.37
2023-01-10T15:56:16.022Z,1.83
2023-01-10T15:58:43.708Z,1.80
2023-01-10T16:01:15.379Z,2.60
2023-01-10T16:03:51.839Z,3.40
2023-01-10T16:06:23.825Z,2.67
2023-01-10T16:08:52.890Z,3.30
2023-01-10T16:11:54.501Z,3.00
2023-01-10T16:14:21.681Z,2.23
2023-01-10T16:16:48.765Z,2.63
2023-01-10T16:19:16.449Z,2.70
2023-01-10T16:21:45.318Z,2.83
2023-01-10T16:24:17.959Z,2.40
2023-01-10T16:26:45.349Z,2.27
2023-01-10T16:29:12.503Z,2.80
2023-01-10T16:31:40.089Z,2.10
2023-01-10T16:34:07.995Z,2.40
2023-01-10T16:36:35.613Z,3.00
2023-01-10T16:39:08.631Z,2.60
2023-01-10T16:41:54.392Z,2.77
2023-01-10T16:44:21.512Z,2.80
2023-01-10T16:46:48.712Z,3.00
2023-01-10T16:49:15.888Z,2.50
2023-01-10T16:51:43.023Z,2.80
2023-01-10T16:54:14.499Z,2.80
2023-01-10T16:56:41.979Z,2.73
2023-01-10T16:59:09.207Z,3.03
2023-01-10T17:01:38.187Z,2.83
2023-01-10T17:04:07.009Z,2.43
2023-01-10T17:06:34.359Z,2.80
2023-01-10T17:09:01.545Z,2.90
2023-01-10T17:11:33.207Z,2.70
2023-01-10T17:14:00.829Z,2.40
2023-01-10T17:16:27.978Z,2.43
2023-01-10T17:18:55.207Z,2.90
2023-01-10T17:21:23.525Z,2.30
2023-01-10T17:23:51.339Z,2.43
2023-01-10T17:26:19.089Z,2.00
2023-01-10T17:28:48.410Z,2.63
2023-01-10T17:31:16.393Z,2.90
2023-01-10T17:33:43.775Z,3.10
2023-01-10T17:36:11.853Z,3.03
2023-01-10T17:38:39.723Z,2.63
2023-01-10T17:41:07.438Z,2.80
2023-01-10T17:43:34.573Z,2.43
2023-01-10T17:46:05.515Z,3.07
2023-01-10T17:48:34.676Z,3.13
2023-01-10T17:51:02.610Z,3.60
2023-01-10T17:53:29.844Z,3.27
2023-01-10T17:55:58.394Z,4.27
2023-01-10T17:58:26.379Z,4.00
2023-01-10T18:00:53.620Z,4.60
2023-01-10T18:03:20.868Z,3.80
2023-01-10T18:05:55.051Z,4.73
2023-01-10T18:08:22.355Z,4.67
2023-01-10T18:10:49.907Z,5.10
2023-01-10T18:13:17.946Z,5.50
2023-01-10T18:15:48.745Z,4.40
2023-01-10T18:18:16.691Z,4.13
2023-01-10T18:20:44.578Z,4.47
2023-01-10T18:23:21.299Z,4.50
2023-01-10T18:25:57.585Z,4.13
2023-01-10T18:28:39.507Z,4.53
2023-01-10T18:31:09.388Z,4.10
2023-01-10T18:33:36.681Z,4.23
2023-01-10T18:36:04.707Z,3.17
2023-01-10T18:38:32.739Z,3.33
2023-01-10T18:41:00.048Z,3.53
2023-01-10T18:43:27.329Z,3.77
2023-01-10T18:46:20.677Z,4.17
2023-01-10T18:48:50.161Z,3.27
2023-01-10T18:51:18.996Z,3.33
2023-01-10T18:53:48.926Z,3.50
2023-01-10T18:56:17.166Z,3.37
2023-01-10T18:58:44.530Z,3.53
2023-01-10T19:01:13.157Z,2.90
2023-01-10T19:03:40.419Z,3.60
2023-01-10T19:06:10.565Z,3.70
2023-01-10T19:08:39.147Z,3.33
2023-01-10T19:11:15.406Z,3.00
2023-01-10T19:13:43.781Z,3.23
2023-01-10T19:16:37.257Z,2.83
2023-01-10T19:19:05.908Z,2.60
2023-01-10T19:21:34.152Z,3.27
2023-01-10T19:24:02.150Z,2.73
2023-01-10T19:26:29.444Z,2.80
2023-01-10T19:28:56.658Z,3.00
2023-01-10T19:31:25.224Z,3.37
2023-01-10T19:33:52.751Z,2.73
2023-01-10T19:36:20.665Z,2.43
2023-01-10T19:38:48.115Z,2.83
2023-01-10T19:41:15.980Z,2.67
2023-01-10T19:43:43.096Z,2.80
2023-01-10T19:46:11.391Z,2.20
2023-01-10T19:48:38.745Z,2.77
2023-01-10T19:51:10.155Z,2.80
2023-01-10T19:53:38.102Z,2.90
2023-01-10T19:56:09.485Z,2.37
2023-01-10T19:58:37.282Z,2.50
2023-01-10T20:01:08.420Z,2.53
2023-01-10T20:03:35.667Z,2.47
2023-01-10T20:06:03.937Z,2.40
2023-01-10T20:08:31.105Z,2.20
2023-01-10T20:11:05.299Z,2.13
2023-01-10T20:13:37.165Z,2.27
2023-01-10T20:16:05.081Z,2.20
2023-01-10T20:18:32.297Z,2.53
2023-01-10T20:21:00.916Z,2.30
2023-01-10T20:23:28.017Z,1.77
2023-01-10T20:25:58.191Z,2.10
2023-01-10T20:28:26.483Z,1.90
2023-01-10T20:30:53.778Z,1.73
2023-01-10T20:33:21.936Z,2.00
2023-01-10T20:35:56.360Z,1.67
2023-01-10T20:38:23.865Z,2.03
2023-01-10T20:40:51.182Z,2.13
2023-01-10T20:43:18.290Z,2.37
2023-01-10T20:45:45.462Z,1.50
2023-01-10T20:48:12.652Z,1.60
2023-01-10T20:50:42.433Z,2.10
2023-01-10T20:53:09.837Z,1.47
2023-01-10T20:55:37.127Z,1.77
2023-01-10T20:58:04.942Z,1.80
2023-01-10T21:00:32.433Z,2.10
2023-01-10T21:02:59.556Z,1.70
2023-01-10T21:05:26.934Z,1.53
2023-01-10T21:07:54.411Z,1.70
2023-01-10T21:10:21.704Z,1.50
2023-01-10T21:12:48.883Z,1.73
2023-01-10T21:15:16.131Z,1.70
2023-01-10T21:17:43.250Z,1.63
2023-01-10T21:20:11.603Z,1.80
2023-01-10T21:22:38.740Z,1.10
2023-01-10T21:25:06.154Z,1.60
2023-01-10T21:27:33.335Z,1.73
2023-01-10T21:30:01.178Z,1.37
2023-01-10T21:32:28.520Z,1.90
2023-01-10T21:34:55.625Z,1.63
2023-01-10T21:37:22.761Z,1.60
2023-01-10T21:39:49.879Z,1.63
2023-01-10T21:42:37.900Z,1.50
2023-01-10T21:45:06.773Z,1.50
2023-01-10T21:47:36.444Z,1.37
2023-01-10T21:50:04.127Z,1.40
2023-01-10T21:52:31.382Z,1.60
2023-01-10T21:54:58.691Z,1.20
2023-01-10T21:57:26.465Z,1.60
2023-01-10T21:59:53.892Z,1.47
2023-01-10T22:02:21.997Z,1.50
2023-01-10T22:04:50.788Z,1.43
2023-01-10T22:07:18.897Z,1.60
2023-01-10T22:09:46.082Z,1.77
2023-01-10T22:12:13.196Z,1.40
2023-01-10T22:14:40.297Z,1.33
2023-01-10T22:17:07.410Z,1.33
2023-01-10T22:19:34.555Z,1.50
2023-01-10T22:22:01.931Z,1.67
2023-01-10T22:24:30.716Z,1.00
2023-01-10T22:26:58.470Z,1.13
2023-01-10T22:29:27.979Z,1.10
2023-01-10T22:31:55.585Z,1.20
2023-01-10T22:34:22.723Z,1.47
2023-01-10T22:36:49.973Z,1.40
2023-01-10T22:39:17.147Z,1.60
2023-01-10T22:41:44.264Z,1.10
2023-01-10T22:44:21.779Z,1.23
2023-01-10T22:46:50.435Z,1.27
2023-01-10T22:49:17.604Z,1.40
2023-01-10T22:51:45.045Z,1.17
2023-01-10T22:54:15.718Z,1.00
2023-01-10T22:56:43.180Z,0.80
2023-01-10T22:59:10.370Z,1.40
2023-01-10T23:01:37.603Z,0.80
2023-01-10T23:04:04.849Z,1.30
2023-01-10T23:06:32.330Z,1.33
2023-01-10T23:08:59.991Z,1.37
2023-01-10T23:11:27.131Z,1.20
2023-01-10T23:13:54.390Z,1.20
2023-01-10T23:16:28.407Z,1.40
2023-01-10T23:18:56.952Z,1.10
2023-01-10T23:21:24.311Z,1.17
2023-01-10T23:23:51.650Z,1.20
2023-01-10T23:26:18.908Z,1.00
2023-01-10T23:28:50.601Z,0.97
2023-01-10T23:31:19.597Z,1.30
2023-01-10T23:33:47.130Z,1.20
2023-01-10T23:36:14.749Z,1.20
2023-01-10T23:38:41.905Z,1.23
2023-01-10T23:41:09.145Z,1.30
2023-01-10T23:43:36.294Z,1.00
2023-01-10T23:46:03.502Z,0.90
2023-01-10T23:48:30.826Z,1.10
2023-01-10T23:50:58.746Z,1.00
2023-01-10T23:53:27.042Z,0.90
2023-01-10T23:55:54.261Z,1.00
2023-01-10T23:58:21.377Z,1.00
